createdAt,value
2023-03-06T00:00:47.554Z,52.28
2023-03-06T00:03:18.201Z,52.21
2023-03-06T00:05:49.177Z,52.18
2023-03-06T00:08:19.388Z,51.84
2023-03-06T00:10:51.791Z,52.36
2023-03-06T00:13:22.422Z,51.50
2023-03-06T00:15:53.068Z,51.14
2023-03-06T00:18:23.502Z,51.98
2023-03-06T00:20:54.212Z,52.00
2023-03-06T00:23:24.690Z,50.95
2023-03-06T00:25:56.437Z,51.45
2023-03-06T00:28:27.848Z,52.11
2023-03-06T00:30:58.257Z,51.79
2023-03-06T00:33:28.978Z,51.06
2023-03-06T00:35:59.410Z,51.17
2023-03-06T00:38:33.925Z,50.40
2023-03-06T00:41:12.870Z,51.90
2023-03-06T00:43:43.028Z,52.53
2023-03-06T00:46:14.089Z,51.87
2023-03-06T00:48:44.647Z,52.20
2023-03-06T00:51:15.192Z,52.45
2023-03-06T00:53:46.170Z,52.43
2023-03-06T00:56:19.967Z,53.00
2023-03-06T00:58:53.217Z,52.60
2023-03-06T01:01:24.774Z,52.72
2023-03-06T01:03:54.933Z,52.79
2023-03-06T01:06:26.179Z,53.66
2023-03-06T01:08:57.131Z,53.40
2023-03-06T01:11:29.609Z,52.74
2023-03-06T01:14:00.028Z,52.75
2023-03-06T01:16:31.106Z,51.54
2023-03-06T01:19:01.683Z,52.58
2023-03-06T01:21:32.689Z,52.60
2023-03-06T01:24:03.484Z,52.79
2023-03-06T01:26:35.472Z,52.48
2023-03-06T01:29:06.977Z,52.28
2023-03-06T01:31:37.892Z,52.89
2023-03-06T01:34:08.291Z,52.42
2023-03-06T01:36:39.448Z,53.14
2023-03-06T01:39:09.560Z,52.69
2023-03-06T01:41:42.656Z,52.41
2023-03-06T01:44:15.597Z,51.89
2023-03-06T01:46:46.692Z,52.41
2023-03-06T01:49:24.163Z,51.23
2023-03-06T01:51:56.769Z,51.83
2023-03-06T01:54:30.460Z,52.02
2023-03-06T01:57:06.831Z,52.89
2023-03-06T01:59:38.269Z,51.78
2023-03-06T02:02:09.790Z,51.62
2023-03-06T02:04:43.153Z,51.76
2023-03-06T02:07:14.323Z,51.33
2023-03-06T02:09:44.626Z,52.77
2023-03-06T02:12:20.869Z,51.77
2023-03-06T02:14:52.713Z,53.55
2023-03-06T02:17:24.775Z,51.65
2023-03-06T02:20:00.320Z,52.24
2023-03-06T02:22:36.198Z,52.73
2023-03-06T02:25:12.406Z,53.28
2023-03-06T02:27:45.052Z,52.77
2023-03-06T02:30:18.196Z,52.34
2023-03-06T02:32:50.198Z,51.15
2023-03-06T02:35:22.630Z,51.48
2023-03-06T02:37:53.104Z,52.01
2023-03-06T02:40:26.413Z,51.89
2023-03-06T02:43:00.772Z,52.50
2023-03-06T02:45:38.683Z,52.28
2023-03-06T02:48:10.580Z,53.62
2023-03-06T02:50:41.063Z,51.23
2023-03-06T02:53:15.128Z,52.34
2023-03-06T02:55:46.703Z,52.49
2023-03-06T02:58:19.937Z,51.52
2023-03-06T03:00:50.507Z,52.49
2023-03-06T03:03:21.490Z,53.19
2023-03-06T03:05:51.003Z,52.93
2023-03-06T03:08:21.478Z,53.85
2023-03-06T03:10:52.218Z,52.34
2023-03-06T03:13:23.516Z,52.50
2023-03-06T03:16:01.270Z,53.03
2023-03-06T03:18:32.996Z,54.60
2023-03-06T03:21:03.930Z,54.74
2023-03-06T03:23:33.872Z,54.02
2023-03-06T03:26:09.507Z,55.15
2023-03-06T03:28:42.362Z,53.20
2023-03-06T03:31:14.933Z,53.41
2023-03-06T03:33:45.533Z,53.86
2023-03-06T03:36:15.464Z,52.78
2023-03-06T03:38:46.013Z,53.30
2023-03-06T03:41:16.500Z,53.57
2023-03-06T03:43:48.974Z,54.08
2023-03-06T03:46:19.109Z,54.17
2023-03-06T03:48:49.793Z,52.16
2023-03-06T03:51:21.075Z,53.32
2023-03-06T03:53:51.855Z,55.22
2023-03-06T03:56:22.285Z,54.57
2023-03-06T03:58:55.890Z,54.13
2023-03-06T04:01:26.189Z,54.86
2023-03-06T04:03:57.299Z,54.80
2023-03-06T04:06:27.986Z,53.26
2023-03-06T04:08:59.185Z,52.98
2023-03-06T04:11:30.056Z,53.09
2023-03-06T04:14:03.612Z,53.10
2023-03-06T04:16:34.413Z,53.54
2023-03-06T04:19:05.189Z,52.76
2023-03-06T04:21:36.493Z,53.05
2023-03-06T04:24:07.829Z,53.38
2023-03-06T04:26:38.386Z,52.60
2023-03-06T04:29:10.067Z,52.04
2023-03-06T04:31:40.271Z,51.54
2023-03-06T04:34:12.174Z,52.32
2023-03-06T04:36:45.349Z,51.79
2023-03-06T04:39:16.565Z,52.64
2023-03-06T04:41:47.607Z,53.19
2023-03-06T04:44:20.114Z,53.27
2023-03-06T04:46:50.414Z,52.51
2023-03-06T04:49:21.295Z,52.31
2023-03-06T04:51:51.380Z,52.22
2023-03-06T04:54:21.953Z,52.63
2023-03-06T04:56:53.693Z,52.33
2023-03-06T04:59:26.072Z,52.69
2023-03-06T05:01:57.068Z,52.23
2023-03-06T05:04:27.398Z,52.73
2023-03-06T05:06:58.478Z,53.80
2023-03-06T05:09:29.463Z,53.14
2023-03-06T05:12:00.271Z,52.87
2023-03-06T05:14:34.106Z,55.13
2023-03-06T05:17:04.016Z,52.79
2023-03-06T05:19:34.765Z,52.15
2023-03-06T05:22:06.170Z,52.93
2023-03-06T05:24:36.707Z,53.77
2023-03-06T05:27:07.371Z,51.76
2023-03-06T05:29:39.708Z,53.84
2023-03-06T05:32:11.578Z,54.61
2023-03-06T05:34:42.996Z,54.34
2023-03-06T05:37:13.992Z,55.08
2023-03-06T05:39:45.792Z,55.53
2023-03-06T05:42:20.318Z,54.96
2023-03-06T05:44:52.730Z,55.94
2023-03-06T05:47:22.541Z,53.58
2023-03-06T05:49:53.731Z,54.92
2023-03-06T05:52:23.528Z,53.76
2023-03-06T05:54:55.691Z,54.51
2023-03-06T05:57:26.440Z,53.68
2023-03-06T05:59:58.940Z,53.41
2023-03-06T06:02:29.642Z,54.10
2023-03-06T06:04:59.517Z,53.91
2023-03-06T06:07:29.882Z,54.19
2023-03-06T06:10:02.338Z,54.42
2023-03-06T06:12:33.896Z,53.37
2023-03-06T06:15:07.632Z,53.34
2023-03-06T06:17:37.582Z,52.90
2023-03-06T06:20:09.395Z,53.41
2023-03-06T06:22:40.382Z,52.26
2023-03-06T06:25:11.343Z,51.61
2023-03-06T06:27:41.994Z,52.89
2023-03-06T06:30:17.061Z,53.37
2023-03-06T06:32:46.578Z,53.68
2023-03-06T06:35:16.948Z,53.58
2023-03-06T06:37:47.442Z,55.71
2023-03-06T06:40:18.584Z,54.19
2023-03-06T06:42:49.042Z,52.81
2023-03-06T06:45:21.163Z,53.12
2023-03-06T06:47:53.342Z,54.30
2023-03-06T06:50:23.792Z,53.39
2023-03-06T06:52:53.922Z,53.10
2023-03-06T06:55:24.452Z,52.90
2023-03-06T06:57:54.724Z,53.74
2023-03-06T07:00:27.224Z,53.96
2023-03-06T07:02:57.726Z,54.13
2023-03-06T07:05:28.307Z,52.33
2023-03-06T07:07:59.344Z,53.93
2023-03-06T07:10:29.932Z,55.05
2023-03-06T07:13:00.973Z,53.45
2023-03-06T07:15:35.567Z,53.73
2023-03-06T07:18:06.377Z,53.50
2023-03-06T07:20:37.143Z,53.88
2023-03-06T07:23:09.298Z,53.47
2023-03-06T07:25:40.717Z,52.99
2023-03-06T07:28:12.685Z,54.13
2023-03-06T07:30:45.287Z,53.11
2023-03-06T07:33:16.613Z,54.21
2023-03-06T07:35:47.334Z,53.56
2023-03-06T07:38:18.084Z,53.80
2023-03-06T07:40:53.586Z,55.09
2023-03-06T07:43:23.767Z,56.00
2023-03-06T07:46:00.854Z,55.92
2023-03-06T07:48:31.187Z,54.38
2023-03-06T07:51:03.617Z,56.10
2023-03-06T07:53:34.600Z,54.08
2023-03-06T07:56:09.398Z,54.82
2023-03-06T07:58:40.728Z,56.30
2023-03-06T08:01:13.928Z,55.92
2023-03-06T08:03:44.735Z,54.42
2023-03-06T08:06:16.739Z,54.67
2023-03-06T08:08:49.035Z,54.23
2023-03-06T08:11:21.725Z,53.55
2023-03-06T08:13:53.458Z,52.52
2023-03-06T08:16:26.789Z,52.67
2023-03-06T08:18:57.908Z,53.93
2023-03-06T08:21:29.470Z,53.03
2023-03-06T08:24:00.494Z,53.27
2023-03-06T08:26:34.079Z,53.69
2023-03-06T08:29:04.629Z,54.88
2023-03-06T08:31:38.228Z,55.30
2023-03-06T08:34:09.873Z,53.67
2023-03-06T08:36:40.878Z,52.86
2023-03-06T08:39:14.860Z,52.29
2023-03-06T08:41:45.501Z,53.40
2023-03-06T08:44:15.793Z,52.69
2023-03-06T08:46:47.626Z,52.15
2023-03-06T08:49:17.622Z,51.57
2023-03-06T08:51:48.452Z,52.91
2023-03-06T08:54:19.274Z,52.24
2023-03-06T08:56:49.456Z,50.42
2023-03-06T08:59:19.630Z,51.58
2023-03-06T09:01:56.378Z,51.33
2023-03-06T09:04:27.276Z,52.22
2023-03-06T09:06:58.570Z,51.67
2023-03-06T09:09:29.820Z,52.55
2023-03-06T09:12:00.613Z,52.41
2023-03-06T09:14:31.253Z,51.81
2023-03-06T09:17:03.254Z,51.48
2023-03-06T09:19:34.049Z,52.25
2023-03-06T09:22:04.404Z,51.99
2023-03-06T09:24:34.935Z,52.52
2023-03-06T09:27:06.543Z,52.52
2023-03-06T09:29:36.820Z,51.38
2023-03-06T09:32:12.026Z,52.32
2023-03-06T09:34:43.347Z,52.02
2023-03-06T09:37:13.971Z,52.77
2023-03-06T09:39:45.600Z,51.97
2023-03-06T09:42:19.473Z,52.08
2023-03-06T09:44:53.175Z,52.79
2023-03-06T09:47:37.644Z,52.59
2023-03-06T09:50:31.093Z,52.60
2023-03-06T09:53:33.603Z,51.75
2023-03-06T09:56:05.666Z,50.98
2023-03-06T09:58:43.165Z,51.95
2023-03-06T10:01:20.136Z,52.84
2023-03-06T10:03:56.501Z,50.11
2023-03-06T10:06:30.216Z,49.88
2023-03-06T10:09:05.341Z,49.31
2023-03-06T10:11:37.827Z,51.46
2023-03-06T10:14:19.772Z,49.87
2023-03-06T10:16:49.955Z,49.16
2023-03-06T10:19:23.686Z,49.97
2023-03-06T10:21:59.552Z,50.78
2023-03-06T10:24:47.743Z,50.25
2023-03-06T10:27:34.010Z,50.24
2023-03-06T10:30:13.100Z,49.81
2023-03-06T10:32:52.031Z,50.24
2023-03-06T10:35:30.524Z,50.84
2023-03-06T10:38:04.125Z,50.49
2023-03-06T10:40:42.586Z,50.39
2023-03-06T10:43:13.985Z,50.49
2023-03-06T10:45:50.715Z,51.96
2023-03-06T10:48:24.090Z,51.31
2023-03-06T10:51:04.734Z,53.19
2023-03-06T10:53:52.039Z,52.11
2023-03-06T10:56:33.941Z,50.79
2023-03-06T10:59:13.210Z,49.87
2023-03-06T11:01:45.501Z,47.82
2023-03-06T11:04:29.733Z,49.24
2023-03-06T11:07:17.089Z,50.06
2023-03-06T11:10:02.174Z,49.53
2023-03-06T11:12:34.519Z,49.72
2023-03-06T11:15:21.215Z,49.95
2023-03-06T11:17:58.687Z,49.99
2023-03-06T11:20:48.484Z,49.41
2023-03-06T11:23:27.013Z,50.73
2023-03-06T11:26:00.048Z,51.16
2023-03-06T11:28:32.416Z,50.48
2023-03-06T11:31:06.491Z,49.20
2023-03-06T11:33:41.375Z,50.07
2023-03-06T11:36:16.696Z,49.73
2023-03-06T11:38:52.314Z,49.79
2023-03-06T11:41:28.591Z,48.97
2023-03-06T11:44:06.964Z,48.96
2023-03-06T11:46:41.679Z,49.40
2023-03-06T11:49:18.862Z,49.74
2023-03-06T11:51:53.798Z,49.62
2023-03-06T11:54:26.373Z,49.05
2023-03-06T11:57:00.812Z,47.97
2023-03-06T11:59:52.783Z,49.28
2023-03-06T12:02:35.056Z,50.04
2023-03-06T12:05:23.004Z,49.26
2023-03-06T12:07:59.274Z,49.65
2023-03-06T12:10:36.635Z,49.19
2023-03-06T12:13:28.099Z,49.89
2023-03-06T12:16:12.000Z,49.91
2023-03-06T12:18:53.444Z,50.31
2023-03-06T12:21:31.054Z,50.10
2023-03-06T12:24:23.752Z,48.98
2023-03-06T12:27:09.858Z,48.83
2023-03-06T12:30:04.178Z,50.74
2023-03-06T12:32:45.800Z,48.52
2023-03-06T12:35:50.433Z,48.80
2023-03-06T12:38:41.235Z,49.23
2023-03-06T12:41:20.298Z,49.32
2023-03-06T12:44:19.047Z,47.91
2023-03-06T12:46:51.883Z,48.69
2023-03-06T12:49:32.476Z,49.26
2023-03-06T12:52:03.730Z,50.12
2023-03-06T12:54:40.843Z,50.07
2023-03-06T12:57:12.911Z,49.74
2023-03-06T12:59:48.291Z,50.30
2023-03-06T13:02:47.960Z,50.55
2023-03-06T13:05:37.632Z,50.88
2023-03-06T13:08:37.613Z,49.69
2023-03-06T13:11:36.389Z,49.90
2023-03-06T13:14:26.663Z,50.14
2023-03-06T13:17:29.172Z,51.22
2023-03-06T13:20:35.512Z,49.80
2023-03-06T13:23:44.353Z,50.14
2023-03-06T13:26:51.664Z,48.63
2023-03-06T13:30:02.221Z,49.79
2023-03-06T13:32:36.579Z,50.32
2023-03-06T13:35:45.341Z,49.64
2023-03-06T13:38:33.693Z,50.47
2023-03-06T13:41:35.617Z,49.65
2023-03-06T13:44:41.731Z,49.86
2023-03-06T13:47:25.947Z,49.56
2023-03-06T13:49:57.817Z,50.89
2023-03-06T13:52:37.545Z,49.86
2023-03-06T13:55:16.988Z,49.92
2023-03-06T13:57:56.198Z,50.53
2023-03-06T14:00:48.641Z,49.95
2023-03-06T14:04:03.860Z,49.04
2023-03-06T14:07:06.646Z,51.27
2023-03-06T14:09:40.160Z,51.94
2023-03-06T14:12:17.110Z,51.56
2023-03-06T14:14:53.094Z,50.89
2023-03-06T14:17:28.824Z,50.08
2023-03-06T14:20:02.562Z,50.50
2023-03-06T14:22:34.892Z,50.63
2023-03-06T14:25:09.708Z,51.93
2023-03-06T14:27:43.997Z,50.68
2023-03-06T14:30:17.623Z,51.03
2023-03-06T14:32:47.630Z,52.16
2023-03-06T14:35:30.125Z,50.98
2023-03-06T14:38:04.801Z,51.14
2023-03-06T14:40:37.895Z,51.66
2023-03-06T14:43:27.089Z,51.77
2023-03-06T14:45:59.811Z,51.17
2023-03-06T14:48:41.658Z,51.30
2023-03-06T14:51:19.112Z,52.05
2023-03-06T14:53:53.003Z,50.67
2023-03-06T14:56:25.076Z,51.56
2023-03-06T14:58:57.999Z,51.12
2023-03-06T15:01:32.944Z,50.86
2023-03-06T15:04:04.601Z,49.62
2023-03-06T15:06:38.201Z,52.08
2023-03-06T15:09:16.772Z,51.34
2023-03-06T15:11:58.182Z,52.54
2023-03-06T15:14:37.871Z,52.03
2023-03-06T15:17:33.399Z,51.31
2023-03-06T15:20:04.195Z,50.68
2023-03-06T15:22:38.259Z,51.22
2023-03-06T15:25:26.976Z,51.91
2023-03-06T15:27:58.467Z,51.91
2023-03-06T15:30:32.881Z,51.49
2023-03-06T15:33:25.538Z,51.27
2023-03-06T15:35:57.620Z,50.81
2023-03-06T15:38:41.173Z,50.93
2023-03-06T15:41:34.943Z,51.79
2023-03-06T15:44:11.411Z,51.31
2023-03-06T15:46:41.956Z,52.37
2023-03-06T15:49:19.704Z,51.62
2023-03-06T15:51:49.938Z,52.19
2023-03-06T15:54:20.339Z,52.32
2023-03-06T15:56:53.800Z,52.03
2023-03-06T15:59:26.771Z,53.14
2023-03-06T16:01:57.460Z,52.60
2023-03-06T16:04:28.106Z,52.85
2023-03-06T16:07:03.860Z,53.25
2023-03-06T16:09:34.490Z,53.57
2023-03-06T16:12:07.647Z,52.85
2023-03-06T16:14:38.256Z,52.93
2023-03-06T16:17:09.287Z,53.77
2023-03-06T16:19:39.660Z,53.03
2023-03-06T16:22:10.184Z,51.70
2023-03-06T16:24:41.323Z,52.86
2023-03-06T16:27:20.848Z,52.16
2023-03-06T16:29:51.654Z,51.89
2023-03-06T16:32:21.709Z,52.32
2023-03-06T16:34:53.390Z,53.76
2023-03-06T16:37:24.663Z,53.10
2023-03-06T16:39:54.753Z,53.65
2023-03-06T16:42:26.851Z,52.70
2023-03-06T16:44:57.551Z,52.70
2023-03-06T16:47:28.405Z,52.70
2023-03-06T16:50:02.340Z,52.71
2023-03-06T16:52:33.582Z,53.47
2023-03-06T16:55:04.535Z,53.17
2023-03-06T16:57:36.218Z,54.42
2023-03-06T17:00:08.636Z,54.50
2023-03-06T17:02:39.086Z,54.10
2023-03-06T17:05:11.958Z,54.98
2023-03-06T17:07:42.615Z,55.40
2023-03-06T17:10:16.266Z,54.89
2023-03-06T17:12:48.001Z,56.42
2023-03-06T17:15:18.793Z,55.16
2023-03-06T17:17:49.706Z,54.93
2023-03-06T17:20:21.637Z,54.87
2023-03-06T17:22:51.924Z,55.93
2023-03-06T17:25:22.736Z,56.23
2023-03-06T17:27:54.853Z,54.21
2023-03-06T17:30:25.883Z,54.01
2023-03-06T17:32:58.194Z,54.81
2023-03-06T17:35:28.034Z,55.72
2023-03-06T17:37:59.605Z,56.42
2023-03-06T17:40:30.622Z,55.72
2023-03-06T17:43:02.088Z,56.12
2023-03-06T17:45:34.577Z,55.03
2023-03-06T17:48:05.562Z,55.97
2023-03-06T17:50:35.951Z,56.09
2023-03-06T17:53:06.087Z,55.88
2023-03-06T17:55:35.929Z,55.84
2023-03-06T17:58:12.278Z,56.35
2023-03-06T18:00:43.407Z,55.02
2023-03-06T18:03:13.541Z,54.21
2023-03-06T18:05:44.979Z,54.81
2023-03-06T18:08:15.360Z,54.74
2023-03-06T18:10:46.548Z,54.73
2023-03-06T18:13:18.981Z,55.59
2023-03-06T18:15:49.390Z,55.05
2023-03-06T18:18:20.809Z,55.35
2023-03-06T18:20:51.499Z,55.34
2023-03-06T18:23:22.883Z,54.35
2023-03-06T18:25:54.458Z,54.79
2023-03-06T18:28:26.649Z,55.13
2023-03-06T18:30:57.069Z,55.43
2023-03-06T18:33:27.764Z,55.46
2023-03-06T18:35:58.419Z,55.28
2023-03-06T18:38:28.765Z,54.85
2023-03-06T18:41:00.898Z,54.36
2023-03-06T18:43:33.225Z,55.17
2023-03-06T18:46:03.921Z,55.19
2023-03-06T18:48:34.570Z,55.74
2023-03-06T18:51:09.412Z,56.60
2023-03-06T18:53:40.888Z,55.72
2023-03-06T18:56:16.391Z,55.68
2023-03-06T18:58:55.301Z,56.19
2023-03-06T19:01:26.141Z,55.24
2023-03-06T19:03:57.506Z,55.72
2023-03-06T19:06:28.073Z,56.65
2023-03-06T19:09:02.477Z,57.78
2023-03-06T19:11:33.937Z,57.54
2023-03-06T19:14:05.437Z,57.72
2023-03-06T19:16:37.259Z,59.23
2023-03-06T19:19:08.332Z,60.70
2023-03-06T19:21:38.681Z,59.68
2023-03-06T19:24:14.387Z,60.61
2023-03-06T19:26:44.809Z,59.95
2023-03-06T19:29:16.532Z,59.15
2023-03-06T19:31:47.381Z,59.55
2023-03-06T19:34:17.218Z,59.70
2023-03-06T19:36:48.344Z,60.44
2023-03-06T19:39:20.666Z,61.21
2023-03-06T19:41:51.640Z,61.97
2023-03-06T19:44:23.554Z,62.44
2023-03-06T19:46:54.044Z,62.04
2023-03-06T19:49:24.294Z,62.81
2023-03-06T19:51:54.493Z,61.58
2023-03-06T19:54:25.986Z,61.06
2023-03-06T19:56:56.267Z,61.63
2023-03-06T19:59:28.662Z,61.10
2023-03-06T20:01:58.897Z,61.87
2023-03-06T20:04:32.774Z,61.36
2023-03-06T20:07:05.723Z,62.71
2023-03-06T20:09:36.466Z,62.35
2023-03-06T20:12:08.279Z,62.61
2023-03-06T20:14:41.379Z,62.94
2023-03-06T20:17:11.825Z,62.58
2023-03-06T20:19:43.146Z,62.83
2023-03-06T20:22:14.312Z,62.53
2023-03-06T20:24:44.533Z,62.78
2023-03-06T20:27:14.852Z,63.53
2023-03-06T20:29:47.346Z,62.88
2023-03-06T20:32:17.737Z,62.79
2023-03-06T20:34:50.290Z,63.43
2023-03-06T20:37:20.704Z,62.30
2023-03-06T20:39:52.393Z,63.23
2023-03-06T20:42:22.135Z,63.64
2023-03-06T20:44:53.430Z,63.10
2023-03-06T20:47:24.550Z,62.20
2023-03-06T20:49:56.947Z,62.27
2023-03-06T20:52:27.124Z,62.29
2023-03-06T20:54:57.090Z,62.54
2023-03-06T20:57:27.517Z,64.29
2023-03-06T20:59:59.806Z,63.81
2023-03-06T21:02:30.510Z,63.71
2023-03-06T21:05:01.538Z,65.95
2023-03-06T21:07:31.642Z,65.07
2023-03-06T21:10:02.405Z,64.70
2023-03-06T21:12:32.886Z,64.88
2023-03-06T21:15:05.090Z,64.56
2023-03-06T21:17:35.636Z,64.96
2023-03-06T21:20:07.514Z,65.68
2023-03-06T21:22:38.238Z,66.36
2023-03-06T21:25:09.368Z,66.60
2023-03-06T21:27:39.535Z,65.95
2023-03-06T21:30:14.110Z,65.82
2023-03-06T21:32:45.226Z,65.88
2023-03-06T21:35:15.956Z,67.05
2023-03-06T21:37:47.344Z,66.37
2023-03-06T21:40:17.204Z,65.32
2023-03-06T21:42:47.327Z,65.87
2023-03-06T21:45:18.451Z,67.32
2023-03-06T21:47:50.835Z,66.54
2023-03-06T21:50:22.481Z,65.95
2023-03-06T21:52:53.593Z,67.30
2023-03-06T21:55:24.945Z,67.84
2023-03-06T21:57:56.021Z,67.55
2023-03-06T22:00:28.591Z,67.23
2023-03-06T22:03:00.385Z,65.95
2023-03-06T22:05:31.923Z,65.76
2023-03-06T22:08:02.474Z,68.03
2023-03-06T22:10:32.581Z,69.09
2023-03-06T22:13:02.890Z,67.09
2023-03-06T22:15:34.841Z,68.67
2023-03-06T22:18:05.757Z,66.28
2023-03-06T22:20:36.180Z,66.90
2023-03-06T22:23:06.746Z,66.08
2023-03-06T22:25:38.399Z,66.80
2023-03-06T22:28:08.515Z,65.42
2023-03-06T22:30:40.224Z,65.00
2023-03-06T22:33:10.967Z,64.47
2023-03-06T22:35:41.346Z,67.14
2023-03-06T22:38:12.015Z,67.77
2023-03-06T22:40:41.743Z,69.70
2023-03-06T22:43:11.861Z,67.64
2023-03-06T22:45:43.891Z,66.48
2023-03-06T22:48:14.189Z,68.44
2023-03-06T22:50:44.914Z,67.74
2023-03-06T22:53:15.314Z,67.95
2023-03-06T22:55:45.825Z,66.40
2023-03-06T22:58:15.957Z,64.65
2023-03-06T23:00:48.229Z,66.04
2023-03-06T23:03:18.665Z,67.61
2023-03-06T23:05:49.278Z,67.48
2023-03-06T23:08:19.792Z,67.88
2023-03-06T23:10:50.397Z,68.23
2023-03-06T23:13:20.444Z,67.99
2023-03-06T23:15:52.545Z,65.87
2023-03-06T23:18:23.012Z,65.03
2023-03-06T23:20:53.379Z,65.13
2023-03-06T23:23:24.977Z,66.49
2023-03-06T23:26:00.487Z,64.83
2023-03-06T23:28:30.900Z,64.78
2023-03-06T23:31:03.220Z,65.61
2023-03-06T23:33:33.605Z,66.99
2023-03-06T23:36:06.470Z,67.81
2023-03-06T23:38:37.321Z,66.89
2023-03-06T23:41:09.750Z,68.68
2023-03-06T23:43:40.106Z,71.75
2023-03-06T23:46:12.112Z,73.81
2023-03-06T23:48:43.595Z,71.58
2023-03-06T23:51:17.497Z,72.47
2023-03-06T23:53:49.174Z,73.60
2023-03-06T23:56:20.541Z,73.64
2023-03-06T23:58:51.522Z,73.44
